Time;durP1;ratioP1;P1;durP2;ratioP2;P2;SDS_P1;SDS_P2;PMS_P1;PMS_P2;Temp;Humidity;BMP_temperature;BMP_pressure;BME280_temperature;BME280_humidity;BME280_pressure;Samples;Min_cycle;Max_cycle;Signal;HPM_P1;HPM_P2
2021/09/26 00:00:29;;;;;;;;;;;24.70;50.70;;;;;;491373;242;1062;-68
2021/09/26 00:02:31;;;;;;;;;;;24.60;50.90;;;;;;491392;242;1019;-68
2021/09/26 00:04:32;;;;;;;;;;;24.50;51.00;;;;;;491370;242;1132;-68
2021/09/26 00:06:33;;;;;;;;;;;24.50;51.10;;;;;;491493;242;1040;-69
2021/09/26 00:08:35;;;;;;;;;;;24.40;51.20;;;;;;491297;242;1118;-69
2021/09/26 00:10:36;;;;;;;;;;;24.50;51.30;;;;;;491331;242;990;-68
2021/09/26 00:12:37;;;;;;;;;;;24.40;51.30;;;;;;491257;242;1189;-68
2021/09/26 00:14:39;;;;;;;;;;;24.40;51.50;;;;;;491297;242;1040;-69
2021/09/26 00:16:40;;;;;;;;;;;24.30;51.50;;;;;;491239;242;1163;-68
2021/09/26 00:18:41;;;;;;;;;;;24.30;51.60;;;;;;491305;242;2113;-68
2021/09/26 00:20:43;;;;;;;;;;;24.30;51.50;;;;;;491316;242;922;-69
2021/09/26 00:22:44;;;;;;;;;;;24.30;51.60;;;;;;491230;242;1299;-68
2021/09/26 00:24:45;;;;;;;;;;;24.30;51.60;;;;;;491365;242;1036;-68
2021/09/26 00:26:47;;;;;;;;;;;24.30;51.50;;;;;;491311;242;1116;-68
2021/09/26 00:28:48;;;;;;;;;;;24.30;51.50;;;;;;491376;242;1047;-69
2021/09/26 00:30:49;;;;;;;;;;;24.40;51.50;;;;;;491339;242;1035;-68
2021/09/26 00:32:51;;;;;;;;;;;24.40;51.40;;;;;;491361;242;1207;-68
2021/09/26 00:34:52;;;;;;;;;;;24.40;51.30;;;;;;491377;242;1052;-68
2021/09/26 00:36:53;;;;;;;;;;;24.40;51.50;;;;;;491353;242;1103;-68
2021/09/26 00:38:55;;;;;;;;;;;24.40;51.50;;;;;;491298;242;2188;-68
2021/09/26 00:40:56;;;;;;;;;;;24.30;51.50;;;;;;491330;242;1118;-68
2021/09/26 00:42:57;;;;;;;;;;;24.40;51.50;;;;;;491330;242;1094;-68
2021/09/26 00:44:59;;;;;;;;;;;24.30;51.60;;;;;;491384;242;1072;-68
2021/09/26 00:47:00;;;;;;;;;;;24.30;51.50;;;;;;491313;242;1103;-68
2021/09/26 00:49:01;;;;;;;;;;;24.40;51.50;;;;;;491427;242;1035;-68
2021/09/26 00:51:03;;;;;;;;;;;24.30;51.40;;;;;;491277;242;1286;-68
2021/09/26 00:53:04;;;;;;;;;;;24.30;51.40;;;;;;491227;242;1168;-68
2021/09/26 00:55:05;;;;;;;;;;;24.30;51.50;;;;;;491287;242;1006;-68
2021/09/26 00:57:06;;;;;;;;;;;24.30;51.50;;;;;;491258;242;1094;-68
2021/09/26 00:59:08;;;;;;;;;;;24.40;51.50;;;;;;491452;242;2192;-68
2021/09/26 01:01:09;;;;;;;;;;;24.40;51.50;;;;;;491272;242;1187;-69
2021/09/26 01:03:11;;;;;;;;;;;24.30;51.50;;;;;;491243;242;1379;-68
2021/09/26 01:05:12;;;;;;;;;;;24.30;51.50;;;;;;491316;242;1100;-68
2021/09/26 01:07:13;;;;;;;;;;;24.40;51.40;;;;;;491225;242;1469;-68
2021/09/26 01:09:15;;;;;;;;;;;24.40;51.40;;;;;;491340;242;1058;-68
2021/09/26 01:11:17;;;;;;;;;;;24.30;51.50;;;;;;491306;242;1317;-68
2021/09/26 01:13:18;;;;;;;;;;;24.30;51.50;;;;;;491339;242;1240;-68
2021/09/26 01:15:20;;;;;;;;;;;24.30;51.50;;;;;;491245;242;1239;-68
2021/09/26 01:17:20;;;;;;;;;;;24.40;51.60;;;;;;491167;243;1524;-68
2021/09/26 01:19:22;;;;;;;;;;;24.40;51.50;;;;;;491274;242;2180;-68
2021/09/26 01:21:23;;;;;;;;;;;24.30;51.50;;;;;;491227;242;1409;-68
2021/09/26 01:23:26;;;;;;;;;;;24.30;51.60;;;;;;491242;242;1036;-68
2021/09/26 01:25:26;;;;;;;;;;;24.40;51.60;;;;;;491215;242;1483;-68
2021/09/26 01:27:27;;;;;;;;;;;24.40;51.50;;;;;;491254;242;1331;-68
2021/09/26 01:29:29;;;;;;;;;;;24.30;51.60;;;;;;491402;242;1037;-68
2021/09/26 01:31:30;;;;;;;;;;;24.40;51.40;;;;;;491300;242;1193;-68
2021/09/26 01:33:31;;;;;;;;;;;24.50;51.40;;;;;;491374;242;1201;-68
2021/09/26 01:35:32;;;;;;;;;;;24.60;51.10;;;;;;491337;242;1061;-68
2021/09/26 01:37:34;;;;;;;;;;;24.60;51.10;;;;;;491309;242;1135;-68
2021/09/26 01:39:35;;;;;;;;;;;24.60;51.00;;;;;;491332;242;2265;-68
2021/09/26 01:41:36;;;;;;;;;;;24.60;51.00;;;;;;491357;242;1260;-68
2021/09/26 01:43:38;;;;;;;;;;;24.70;50.80;;;;;;491304;242;1016;-68
2021/09/26 01:45:39;;;;;;;;;;;24.70;50.80;;;;;;491319;242;1049;-68
2021/09/26 01:47:40;;;;;;;;;;;24.80;50.60;;;;;;491316;242;1189;-69
2021/09/26 01:49:42;;;;;;;;;;;24.90;50.40;;;;;;491404;242;973;-68
2021/09/26 01:51:43;;;;;;;;;;;24.90;50.40;;;;;;491315;242;1029;-68
2021/09/26 01:53:44;;;;;;;;;;;24.80;50.50;;;;;;491406;242;1137;-68
2021/09/26 01:55:46;;;;;;;;;;;24.90;50.40;;;;;;491331;242;1088;-68
2021/09/26 01:57:47;;;;;;;;;;;24.80;50.40;;;;;;491422;242;2133;-68
2021/09/26 01:59:48;;;;;;;;;;;24.70;50.50;;;;;;491360;242;1069;-68
2021/09/26 02:01:50;;;;;;;;;;;24.80;50.60;;;;;;491446;242;1093;-69
2021/09/26 02:03:52;;;;;;;;;;;24.80;50.70;;;;;;491465;242;1241;-68
2021/09/26 02:05:52;;;;;;;;;;;24.80;50.70;;;;;;491390;242;1294;-68
2021/09/26 02:07:54;;;;;;;;;;;24.70;50.70;;;;;;491268;242;1064;-68
2021/09/26 02:09:55;;;;;;;;;;;24.70;50.80;;;;;;491323;242;1099;-68
2021/09/26 02:11:56;;;;;;;;;;;24.60;50.80;;;;;;491247;242;1040;-68
2021/09/26 02:13:58;;;;;;;;;;;24.70;50.70;;;;;;491290;242;1024;-68
2021/09/26 02:15:59;;;;;;;;;;;24.80;50.70;;;;;;491238;242;1107;-68
2021/09/26 02:18:00;;;;;;;;;;;24.90;50.40;;;;;;491318;242;2188;-68
2021/09/26 02:20:02;;;;;;;;;;;24.90;50.30;;;;;;491424;242;929;-68
2021/09/26 02:22:03;;;;;;;;;;;24.90;50.40;;;;;;491317;242;1082;-69
2021/09/26 02:24:04;;;;;;;;;;;24.90;50.30;;;;;;491419;242;949;-68
2021/09/26 02:26:06;;;;;;;;;;;24.80;50.40;;;;;;491389;242;1097;-68
2021/09/26 02:28:08;;;;;;;;;;;24.90;50.40;;;;;;491428;242;1069;-68
2021/09/26 02:30:09;;;;;;;;;;;24.80;50.50;;;;;;491477;242;1014;-68
2021/09/26 02:32:10;;;;;;;;;;;24.90;50.40;;;;;;491247;242;1066;-68
2021/09/26 02:34:12;;;;;;;;;;;24.80;50.50;;;;;;491289;242;1200;-68
2021/09/26 02:36:13;;;;;;;;;;;24.80;50.50;;;;;;491270;242;1247;-68
2021/09/26 02:38:14;;;;;;;;;;;24.80;50.50;;;;;;491260;242;2129;-68
2021/09/26 02:40:16;;;;;;;;;;;24.70;50.60;;;;;;491305;242;1054;-68
2021/09/26 02:42:17;;;;;;;;;;;24.80;50.60;;;;;;491257;242;1108;-68
2021/09/26 02:44:18;;;;;;;;;;;24.70;50.50;;;;;;491342;242;1060;-68
2021/09/26 02:46:20;;;;;;;;;;;24.80;50.60;;;;;;491256;242;1134;-68
2021/09/26 02:48:21;;;;;;;;;;;24.90;50.50;;;;;;491260;242;1138;-68
2021/09/26 02:50:22;;;;;;;;;;;24.70;50.70;;;;;;491301;242;992;-68
2021/09/26 02:52:24;;;;;;;;;;;24.80;50.70;;;;;;491294;242;1088;-68
2021/09/26 02:54:25;;;;;;;;;;;24.80;50.60;;;;;;491369;242;1076;-68
2021/09/26 02:56:26;;;;;;;;;;;24.80;50.70;;;;;;491320;242;1144;-68
2021/09/26 02:58:28;;;;;;;;;;;24.80;50.60;;;;;;491404;242;2191;-68
2021/09/26 03:00:29;;;;;;;;;;;24.80;50.50;;;;;;491304;242;970;-68
2021/09/26 03:02:30;;;;;;;;;;;24.80;50.50;;;;;;491261;242;1184;-68
2021/09/26 03:04:32;;;;;;;;;;;24.80;50.60;;;;;;491314;242;1197;-68
2021/09/26 03:06:33;;;;;;;;;;;24.80;50.50;;;;;;491287;242;1037;-68
2021/09/26 03:08:34;;;;;;;;;;;24.80;50.50;;;;;;491342;242;1218;-68
2021/09/26 03:10:36;;;;;;;;;;;24.80;50.60;;;;;;491330;242;1028;-68
2021/09/26 03:12:37;;;;;;;;;;;24.80;50.60;;;;;;491314;242;1159;-68
2021/09/26 03:14:38;;;;;;;;;;;24.90;50.50;;;;;;491356;242;1077;-68
2021/09/26 03:16:40;;;;;;;;;;;24.80;50.50;;;;;;491331;242;1049;-68
2021/09/26 03:18:41;;;;;;;;;;;24.70;50.60;;;;;;491299;242;2188;-68
2021/09/26 03:20:42;;;;;;;;;;;24.80;50.60;;;;;;491306;242;1072;-68
2021/09/26 03:22:44;;;;;;;;;;;24.80;50.50;;;;;;491421;242;1022;-68
2021/09/26 03:24:45;;;;;;;;;;;24.70;50.70;;;;;;491357;242;968;-68
2021/09/26 03:26:47;;;;;;;;;;;24.80;50.60;;;;;;491235;242;1119;-68
2021/09/26 03:28:48;;;;;;;;;;;24.80;50.50;;;;;;491321;242;1076;-68
2021/09/26 03:30:49;;;;;;;;;;;24.80;50.50;;;;;;491318;242;1350;-68
2021/09/26 03:32:51;;;;;;;;;;;24.80;50.50;;;;;;491270;242;1501;-69
2021/09/26 03:34:52;;;;;;;;;;;24.80;50.60;;;;;;491490;242;1165;-68
2021/09/26 03:36:53;;;;;;;;;;;24.80;50.50;;;;;;491210;242;1390;-68
2021/09/26 03:38:55;;;;;;;;;;;24.80;50.60;;;;;;491253;242;2224;-68
2021/09/26 03:40:56;;;;;;;;;;;24.70;50.60;;;;;;491275;242;1287;-68
2021/09/26 03:42:57;;;;;;;;;;;24.80;50.70;;;;;;491385;242;1284;-68
2021/09/26 03:44:59;;;;;;;;;;;24.80;50.60;;;;;;491400;242;1112;-68
2021/09/26 03:47:00;;;;;;;;;;;24.70;50.60;;;;;;491273;242;1132;-68
2021/09/26 03:49:01;;;;;;;;;;;24.70;50.60;;;;;;491319;242;1148;-68
2021/09/26 03:51:02;;;;;;;;;;;24.70;50.70;;;;;;491305;242;973;-69
2021/09/26 03:53:04;;;;;;;;;;;24.70;50.80;;;;;;491377;242;973;-68
2021/09/26 03:55:05;;;;;;;;;;;24.70;50.80;;;;;;491435;242;1002;-68
2021/09/26 03:57:07;;;;;;;;;;;24.70;50.80;;;;;;491313;242;1152;-68
2021/09/26 03:59:08;;;;;;;;;;;24.70;50.70;;;;;;491329;242;2125;-68
2021/09/26 04:01:09;;;;;;;;;;;24.70;50.60;;;;;;491300;242;1208;-68
2021/09/26 04:03:10;;;;;;;;;;;24.60;50.80;;;;;;491389;242;1065;-68
2021/09/26 04:05:12;;;;;;;;;;;24.70;50.80;;;;;;490145;242;1151;-68
2021/09/26 04:07:13;;;;;;;;;;;24.70;50.60;;;;;;488772;243;1149;-68
2021/09/26 04:09:14;;;;;;;;;;;24.70;50.70;;;;;;488827;243;1096;-68
2021/09/26 04:11:16;;;;;;;;;;;24.70;50.60;;;;;;488815;243;1097;-68
2021/09/26 04:13:17;;;;;;;;;;;24.70;50.60;;;;;;488836;243;1168;-68
2021/09/26 04:15:19;;;;;;;;;;;24.70;50.60;;;;;;488844;243;1060;-68
2021/09/26 04:17:20;;;;;;;;;;;24.80;50.70;;;;;;488770;243;1112;-68
2021/09/26 04:19:21;;;;;;;;;;;24.80;50.60;;;;;;488734;243;2182;-68
2021/09/26 04:21:23;;;;;;;;;;;24.70;50.70;;;;;;488695;243;1110;-68
2021/09/26 04:23:24;;;;;;;;;;;24.80;50.70;;;;;;488830;243;1078;-68
2021/09/26 04:25:25;;;;;;;;;;;24.70;50.70;;;;;;488817;243;965;-68
2021/09/26 04:27:26;;;;;;;;;;;24.80;50.50;;;;;;488767;243;1335;-68
2021/09/26 04:29:28;;;;;;;;;;;24.70;50.70;;;;;;488904;243;1049;-68
2021/09/26 04:31:29;;;;;;;;;;;24.70;50.70;;;;;;488810;243;1157;-68
2021/09/26 04:33:30;;;;;;;;;;;24.80;50.60;;;;;;488787;243;982;-68
2021/09/26 04:35:32;;;;;;;;;;;24.70;50.60;;;;;;488798;243;1175;-68
2021/09/26 04:37:33;;;;;;;;;;;24.80;50.50;;;;;;488752;243;1086;-69
2021/09/26 04:39:34;;;;;;;;;;;24.70;50.60;;;;;;488849;243;2197;-68
2021/09/26 04:41:36;;;;;;;;;;;24.80;50.50;;;;;;488869;243;1252;-68
2021/09/26 04:43:37;;;;;;;;;;;24.70;50.50;;;;;;488787;243;1043;-68
2021/09/26 04:45:38;;;;;;;;;;;24.80;50.40;;;;;;488835;243;1030;-68
2021/09/26 04:47:40;;;;;;;;;;;24.80;50.40;;;;;;488763;243;1072;-68
2021/09/26 04:49:41;;;;;;;;;;;24.70;50.60;;;;;;488793;243;1145;-68
2021/09/26 04:51:42;;;;;;;;;;;24.60;50.80;;;;;;488705;243;1197;-68
2021/09/26 04:53:44;;;;;;;;;;;24.50;50.80;;;;;;488813;243;1038;-68
2021/09/26 04:55:45;;;;;;;;;;;24.70;50.50;;;;;;488834;243;1221;-68
2021/09/26 04:57:46;;;;;;;;;;;24.70;50.50;;;;;;488812;243;1169;-69
2021/09/26 04:59:48;;;;;;;;;;;24.60;50.70;;;;;;488918;243;2110;-68
2021/09/26 05:01:49;;;;;;;;;;;24.60;50.60;;;;;;488887;243;1243;-68
2021/09/26 05:03:50;;;;;;;;;;;24.70;50.50;;;;;;488803;243;1044;-68
2021/09/26 05:05:52;;;;;;;;;;;24.60;50.50;;;;;;488919;243;1155;-68
2021/09/26 05:07:53;;;;;;;;;;;24.70;50.60;;;;;;488839;243;1111;-68
2021/09/26 05:09:54;;;;;;;;;;;24.60;50.80;;;;;;488812;243;1096;-68
2021/09/26 05:11:56;;;;;;;;;;;24.80;50.40;;;;;;488760;243;1346;-68
2021/09/26 05:13:57;;;;;;;;;;;24.80;50.40;;;;;;488867;243;1299;-68
2021/09/26 05:15:58;;;;;;;;;;;24.70;50.40;;;;;;488896;243;1193;-69
2021/09/26 05:18:00;;;;;;;;;;;24.70;50.50;;;;;;488822;243;1122;-68
2021/09/26 05:20:01;;;;;;;;;;;24.60;50.80;;;;;;488753;243;2122;-68
2021/09/26 05:22:02;;;;;;;;;;;24.50;51.00;;;;;;488706;243;1122;-68
2021/09/26 05:24:03;;;;;;;;;;;24.60;50.90;;;;;;488826;243;1025;-68
2021/09/26 05:26:05;;;;;;;;;;;24.60;50.60;;;;;;488753;243;1307;-68
2021/09/26 05:28:06;;;;;;;;;;;24.70;50.60;;;;;;488829;243;987;-68
2021/09/26 05:30:07;;;;;;;;;;;24.70;50.50;;;;;;488838;243;1111;-68
2021/09/26 05:32:09;;;;;;;;;;;24.60;50.70;;;;;;488766;243;1125;-69
2021/09/26 05:34:10;;;;;;;;;;;24.70;50.70;;;;;;488760;243;1005;-68
2021/09/26 05:36:11;;;;;;;;;;;24.70;50.50;;;;;;488757;243;1291;-68
2021/09/26 05:38:13;;;;;;;;;;;24.60;50.80;;;;;;488774;243;1092;-68
2021/09/26 05:40:14;;;;;;;;;;;24.70;50.70;;;;;;488796;243;2234;-68
2021/09/26 05:42:15;;;;;;;;;;;24.70;50.60;;;;;;488761;243;1051;-68
2021/09/26 05:44:17;;;;;;;;;;;24.70;50.50;;;;;;488924;243;1180;-68
2021/09/26 05:46:18;;;;;;;;;;;24.60;50.80;;;;;;488831;243;1212;-68
2021/09/26 05:48:20;;;;;;;;;;;24.70;50.50;;;;;;488889;243;1074;-68
2021/09/26 05:50:21;;;;;;;;;;;24.70;50.50;;;;;;488735;243;1219;-68
2021/09/26 05:52:22;;;;;;;;;;;24.70;50.50;;;;;;488745;243;1082;-68
2021/09/26 05:54:24;;;;;;;;;;;24.70;50.60;;;;;;488782;243;1072;-68
2021/09/26 05:56:25;;;;;;;;;;;24.70;50.60;;;;;;488710;243;1179;-68
2021/09/26 05:58:26;;;;;;;;;;;24.70;50.60;;;;;;488821;243;941;-68
2021/09/26 06:00:28;;;;;;;;;;;24.80;50.50;;;;;;488832;243;2127;-68
2021/09/26 06:02:29;;;;;;;;;;;24.60;50.60;;;;;;488883;243;1095;-68
2021/09/26 06:04:30;;;;;;;;;;;24.60;50.70;;;;;;488793;243;1063;-68
2021/09/26 06:06:32;;;;;;;;;;;24.70;50.70;;;;;;488781;243;1317;-68
2021/09/26 06:08:33;;;;;;;;;;;24.70;50.50;;;;;;488747;243;1197;-68
2021/09/26 06:10:34;;;;;;;;;;;24.70;50.50;;;;;;488753;243;1151;-68
2021/09/26 06:12:36;;;;;;;;;;;24.70;50.60;;;;;;488773;243;1049;-68
2021/09/26 06:14:37;;;;;;;;;;;24.70;50.70;;;;;;488762;243;1063;-68
2021/09/26 06:16:38;;;;;;;;;;;24.60;50.70;;;;;;488860;243;1220;-68
2021/09/26 06:18:40;;;;;;;;;;;24.70;50.60;;;;;;488824;243;1002;-68
2021/09/26 06:20:41;;;;;;;;;;;24.70;50.70;;;;;;488787;243;2189;-68
2021/09/26 06:22:42;;;;;;;;;;;24.70;50.50;;;;;;488822;243;1058;-68
2021/09/26 06:24:45;;;;;;;;;;;24.80;50.40;;;;;;488825;243;997;-68
2021/09/26 06:26:46;;;;;;;;;;;24.80;50.40;;;;;;488804;243;1454;-68
2021/09/26 06:28:47;;;;;;;;;;;24.80;50.40;;;;;;488845;243;998;-68
2021/09/26 06:30:48;;;;;;;;;;;24.70;50.60;;;;;;488828;243;1157;-68
2021/09/26 06:32:50;;;;;;;;;;;24.80;50.50;;;;;;488804;243;1126;-68
2021/09/26 06:34:51;;;;;;;;;;;24.70;50.60;;;;;;488821;243;1097;-68
2021/09/26 06:36:52;;;;;;;;;;;24.50;50.90;;;;;;488781;240;1338;-68
2021/09/26 06:38:54;;;;;;;;;;;24.60;50.70;;;;;;488835;243;1159;-68
2021/09/26 06:40:55;;;;;;;;;;;24.60;50.90;;;;;;488808;243;2193;-68
2021/09/26 06:42:56;;;;;;;;;;;24.70;50.80;;;;;;488828;243;1035;-68
2021/09/26 06:44:58;;;;;;;;;;;24.70;50.80;;;;;;488878;243;1085;-68
2021/09/26 06:46:59;;;;;;;;;;;24.70;50.60;;;;;;488707;243;1094;-68
2021/09/26 06:49:01;;;;;;;;;;;24.70;50.60;;;;;;488941;243;1004;-68
2021/09/26 06:51:02;;;;;;;;;;;24.80;50.50;;;;;;488746;243;1130;-68
2021/09/26 06:53:03;;;;;;;;;;;24.80;50.50;;;;;;488796;243;1199;-68
2021/09/26 06:55:05;;;;;;;;;;;24.70;50.70;;;;;;488824;243;1030;-68
2021/09/26 06:57:06;;;;;;;;;;;24.80;50.60;;;;;;488784;243;1094;-68
2021/09/26 06:59:07;;;;;;;;;;;24.60;50.80;;;;;;488868;243;1107;-68
2021/09/26 07:01:10;;;;;;;;;;;24.60;50.90;;;;;;488903;243;2113;-68
2021/09/26 07:03:10;;;;;;;;;;;24.60;50.90;;;;;;488867;243;1383;-68
2021/09/26 07:05:11;;;;;;;;;;;24.70;50.70;;;;;;488843;243;1069;-68
2021/09/26 07:07:12;;;;;;;;;;;24.80;50.70;;;;;;488760;243;1284;-68
2021/09/26 07:09:14;;;;;;;;;;;24.80;50.50;;;;;;488860;243;1120;-68
2021/09/26 07:11:15;;;;;;;;;;;24.80;50.50;;;;;;488809;243;1133;-68
2021/09/26 07:13:17;;;;;;;;;;;24.80;50.50;;;;;;488898;243;1060;-68
2021/09/26 07:15:18;;;;;;;;;;;24.80;50.50;;;;;;488787;243;1202;-68
2021/09/26 07:17:20;;;;;;;;;;;24.90;50.50;;;;;;488854;243;1132;-68
2021/09/26 07:19:21;;;;;;;;;;;24.80;50.50;;;;;;488800;243;1408;-68
2021/09/26 07:21:22;;;;;;;;;;;24.80;50.60;;;;;;488766;243;2126;-68
2021/09/26 07:23:23;;;;;;;;;;;24.80;50.70;;;;;;488822;243;1137;-68
2021/09/26 07:25:25;;;;;;;;;;;24.80;50.70;;;;;;488793;243;974;-68
2021/09/26 07:27:26;;;;;;;;;;;24.80;50.70;;;;;;488787;243;1087;-68
2021/09/26 07:29:27;;;;;;;;;;;24.80;50.80;;;;;;488866;243;958;-68
2021/09/26 07:31:29;;;;;;;;;;;24.70;50.90;;;;;;488787;243;1305;-68
2021/09/26 07:33:30;;;;;;;;;;;24.80;50.90;;;;;;488808;243;1334;-68
2021/09/26 07:35:31;;;;;;;;;;;24.80;50.90;;;;;;488836;243;1205;-68
2021/09/26 07:37:33;;;;;;;;;;;24.80;50.70;;;;;;488808;243;1167;-68
2021/09/26 07:39:34;;;;;;;;;;;24.80;50.70;;;;;;488849;243;1091;-68
2021/09/26 07:41:35;;;;;;;;;;;24.80;50.90;;;;;;488773;243;2182;-69
2021/09/26 07:43:37;;;;;;;;;;;24.70;50.90;;;;;;488851;243;1047;-68
2021/09/26 07:45:38;;;;;;;;;;;24.80;50.80;;;;;;488817;243;1219;-68
2021/09/26 07:47:39;;;;;;;;;;;24.80;50.90;;;;;;488775;243;1119;-68
2021/09/26 07:49:41;;;;;;;;;;;24.80;50.90;;;;;;488861;243;1037;-68
2021/09/26 07:51:42;;;;;;;;;;;24.90;50.80;;;;;;488720;243;1190;-68
2021/09/26 07:53:43;;;;;;;;;;;24.80;50.80;;;;;;488818;243;1210;-68
2021/09/26 07:55:45;;;;;;;;;;;24.80;50.80;;;;;;488825;243;1293;-68
2021/09/26 07:57:46;;;;;;;;;;;24.80;50.80;;;;;;488762;243;1153;-68
2021/09/26 07:59:47;;;;;;;;;;;24.90;50.70;;;;;;488856;243;1035;-68
2021/09/26 08:01:49;;;;;;;;;;;24.90;50.70;;;;;;488700;243;2177;-68
2021/09/26 08:03:50;;;;;;;;;;;24.80;51.00;;;;;;488852;243;1029;-69
2021/09/26 08:05:51;;;;;;;;;;;24.90;50.80;;;;;;488852;243;984;-68
2021/09/26 08:07:53;;;;;;;;;;;24.80;50.90;;;;;;488853;243;1136;-68
2021/09/26 08:09:54;;;;;;;;;;;24.80;50.90;;;;;;488796;243;985;-69
2021/09/26 08:11:57;;;;;;;;;;;24.80;51.00;;;;;;488698;243;1021;-68
2021/09/26 08:13:58;;;;;;;;;;;24.80;50.80;;;;;;488825;243;1157;-68
2021/09/26 08:15:59;;;;;;;;;;;24.80;50.90;;;;;;488733;243;1178;-68
2021/09/26 08:18:01;;;;;;;;;;;24.70;51.10;;;;;;488784;243;1037;-68
2021/09/26 08:20:02;;;;;;;;;;;24.80;51.10;;;;;;488915;243;2131;-68
2021/09/26 08:22:03;;;;;;;;;;;24.80;51.00;;;;;;488787;243;982;-68
2021/09/26 08:24:06;;;;;;;;;;;24.80;51.00;;;;;;488874;243;1194;-68
2021/09/26 08:26:06;;;;;;;;;;;24.90;50.80;;;;;;488754;243;1401;-68
2021/09/26 08:28:07;;;;;;;;;;;24.90;50.80;;;;;;488881;243;1122;-68
2021/09/26 08:30:09;;;;;;;;;;;24.80;51.00;;;;;;488834;243;1002;-68
2021/09/26 08:32:10;;;;;;;;;;;24.90;50.90;;;;;;488885;243;1153;-68
2021/09/26 08:34:11;;;;;;;;;;;24.90;50.80;;;;;;488816;243;1095;-68
2021/09/26 08:36:13;;;;;;;;;;;24.80;50.90;;;;;;488783;243;1158;-68
2021/09/26 08:38:14;;;;;;;;;;;24.80;51.00;;;;;;488823;243;1133;-68
2021/09/26 08:40:15;;;;;;;;;;;24.80;50.90;;;;;;488858;243;2115;-68
2021/09/26 08:42:17;;;;;;;;;;;24.70;51.00;;;;;;488773;243;1101;-68
2021/09/26 08:44:18;;;;;;;;;;;24.70;51.30;;;;;;488841;243;951;-68
2021/09/26 08:46:19;;;;;;;;;;;24.70;51.30;;;;;;488757;243;1200;-68
2021/09/26 08:48:21;;;;;;;;;;;24.70;51.20;;;;;;488872;243;1048;-69
2021/09/26 08:50:23;;;;;;;;;;;24.80;51.20;;;;;;488844;243;952;-69
2021/09/26 08:52:24;;;;;;;;;;;24.80;51.20;;;;;;488829;243;1044;-68
2021/09/26 08:54:25;;;;;;;;;;;24.70;51.20;;;;;;488770;243;1184;-68
2021/09/26 08:56:27;;;;;;;;;;;24.80;51.20;;;;;;488757;243;1108;-68
2021/09/26 08:58:28;;;;;;;;;;;24.80;51.10;;;;;;488830;243;1030;-68
2021/09/26 09:00:29;;;;;;;;;;;24.80;51.20;;;;;;488986;243;2198;-68
2021/09/26 09:02:31;;;;;;;;;;;24.80;51.20;;;;;;488837;243;1102;-68
2021/09/26 09:04:32;;;;;;;;;;;24.70;51.30;;;;;;488846;243;1070;-68
2021/09/26 09:06:33;;;;;;;;;;;24.80;51.20;;;;;;488895;243;1168;-68
2021/09/26 09:08:35;;;;;;;;;;;24.90;51.00;;;;;;488835;243;1344;-68
2021/09/26 09:10:36;;;;;;;;;;;24.80;51.00;;;;;;488785;243;999;-69
2021/09/26 09:12:37;;;;;;;;;;;24.80;51.10;;;;;;488781;243;1108;-68
2021/09/26 09:14:39;;;;;;;;;;;24.60;51.40;;;;;;488818;243;1153;-68
2021/09/26 09:16:40;;;;;;;;;;;24.70;51.40;;;;;;488833;243;1229;-68
2021/09/26 09:18:43;;;;;;;;;;;24.80;51.30;;;;;;488736;243;1243;-68
2021/09/26 09:20:43;;;;;;;;;;;24.70;51.30;;;;;;488732;243;2169;-68
2021/09/26 09:22:45;;;;;;;;;;;24.70;51.30;;;;;;488697;243;1112;-69
2021/09/26 09:24:46;;;;;;;;;;;24.80;51.10;;;;;;488874;243;1350;-68
2021/09/26 09:26:48;;;;;;;;;;;24.80;51.10;;;;;;488854;243;1156;-68
2021/09/26 09:28:49;;;;;;;;;;;24.80;51.40;;;;;;488810;243;978;-68
2021/09/26 09:30:50;;;;;;;;;;;24.70;51.50;;;;;;488826;243;1305;-68
2021/09/26 09:32:52;;;;;;;;;;;24.60;51.50;;;;;;488778;243;1139;-68
2021/09/26 09:34:53;;;;;;;;;;;24.70;51.50;;;;;;488844;243;988;-68
2021/09/26 09:36:54;;;;;;;;;;;24.70;51.40;;;;;;488824;243;1218;-68
2021/09/26 09:38:55;;;;;;;;;;;24.60;51.50;;;;;;488803;243;1184;-68
2021/09/26 09:40:57;;;;;;;;;;;24.70;51.60;;;;;;488909;243;2118;-68
2021/09/26 09:42:58;;;;;;;;;;;24.70;51.60;;;;;;488760;243;1156;-69
2021/09/26 09:45:00;;;;;;;;;;;24.70;51.60;;;;;;488808;243;1133;-69
2021/09/26 09:47:01;;;;;;;;;;;24.70;51.50;;;;;;488733;243;1374;-68
2021/09/26 09:49:02;;;;;;;;;;;24.80;51.50;;;;;;488813;243;1041;-68
2021/09/26 09:51:03;;;;;;;;;;;24.80;51.40;;;;;;488876;243;1021;-69
2021/09/26 09:53:06;;;;;;;;;;;24.80;51.40;;;;;;488764;243;1061;-68
2021/09/26 09:55:06;;;;;;;;;;;24.70;51.50;;;;;;488719;243;1440;-68
2021/09/26 09:57:07;;;;;;;;;;;24.80;51.40;;;;;;488768;243;1121;-68
2021/09/26 09:59:09;;;;;;;;;;;24.80;51.30;;;;;;488863;243;1043;-68
2021/09/26 10:01:10;;;;;;;;;;;24.80;51.30;;;;;;488811;243;2178;-68
2021/09/26 10:03:11;;;;;;;;;;;24.70;51.30;;;;;;488906;243;1048;-68
2021/09/26 10:05:13;;;;;;;;;;;24.80;51.30;;;;;;488804;243;1076;-68
2021/09/26 10:07:14;;;;;;;;;;;24.80;51.40;;;;;;488788;243;1095;-68
2021/09/26 10:09:15;;;;;;;;;;;24.70;51.50;;;;;;488819;243;1131;-68
2021/09/26 10:11:17;;;;;;;;;;;24.60;51.60;;;;;;488797;243;1180;-68
2021/09/26 10:13:18;;;;;;;;;;;24.70;51.60;;;;;;488793;243;1264;-68
2021/09/26 10:15:19;;;;;;;;;;;24.70;51.50;;;;;;488835;243;952;-68
2021/09/26 10:17:20;;;;;;;;;;;24.80;51.20;;;;;;488802;243;1102;-68
2021/09/26 10:19:22;;;;;;;;;;;24.90;51.20;;;;;;488875;243;1041;-68
2021/09/26 10:21:23;;;;;;;;;;;24.90;51.10;;;;;;488807;243;2181;-69
2021/09/26 10:23:25;;;;;;;;;;;24.80;51.30;;;;;;488852;243;1097;-68
2021/09/26 10:25:26;;;;;;;;;;;24.80;51.20;;;;;;488809;243;1159;-68
2021/09/26 10:27:30;;;;;;;;;;;24.80;51.20;;;;;;488740;243;1330;-68
2021/09/26 10:29:28;;;;;;;;;;;24.80;51.40;;;;;;488811;243;1373;-68
2021/09/26 10:31:30;;;;;;;;;;;24.80;51.20;;;;;;488819;243;1148;-68
2021/09/26 10:33:31;;;;;;;;;;;24.70;51.30;;;;;;488851;243;1181;-68
2021/09/26 10:35:32;;;;;;;;;;;24.90;51.20;;;;;;488848;243;1071;-68
2021/09/26 10:37:34;;;;;;;;;;;24.80;51.30;;;;;;488752;243;1145;-68
2021/09/26 10:39:35;;;;;;;;;;;24.80;51.20;;;;;;488771;243;1154;-68
2021/09/26 10:41:36;;;;;;;;;;;24.70;51.40;;;;;;488696;243;2201;-68
2021/09/26 10:43:38;;;;;;;;;;;24.70;51.50;;;;;;488816;243;1035;-68
2021/09/26 10:45:39;;;;;;;;;;;24.80;51.40;;;;;;488850;243;1199;-68
2021/09/26 10:47:40;;;;;;;;;;;24.80;51.50;;;;;;488838;243;1186;-68
2021/09/26 10:49:42;;;;;;;;;;;24.80;51.40;;;;;;488853;243;1057;-68
2021/09/26 10:51:43;;;;;;;;;;;24.80;51.30;;;;;;488772;243;1140;-68
2021/09/26 10:53:44;;;;;;;;;;;24.90;51.20;;;;;;488752;243;978;-68
2021/09/26 10:55:46;;;;;;;;;;;24.90;51.00;;;;;;488812;243;1176;-68
2021/09/26 10:57:47;;;;;;;;;;;24.90;51.10;;;;;;488740;243;1106;-68
2021/09/26 10:59:48;;;;;;;;;;;24.80;51.30;;;;;;488810;243;997;-68
2021/09/26 11:01:50;;;;;;;;;;;24.70;51.30;;;;;;488698;243;2131;-68
2021/09/26 11:03:51;;;;;;;;;;;24.80;51.20;;;;;;488856;243;1073;-68
2021/09/26 11:05:52;;;;;;;;;;;24.80;51.20;;;;;;488760;243;1065;-68
2021/09/26 11:07:54;;;;;;;;;;;24.80;51.20;;;;;;488842;243;1118;-68
2021/09/26 11:09:55;;;;;;;;;;;24.90;51.10;;;;;;488897;243;1119;-68
2021/09/26 11:11:56;;;;;;;;;;;24.90;51.10;;;;;;488799;243;1115;-68
2021/09/26 11:13:57;;;;;;;;;;;24.90;51.20;;;;;;488941;243;1094;-68
2021/09/26 11:15:59;;;;;;;;;;;24.90;51.10;;;;;;488975;243;1115;-68
2021/09/26 11:18:00;;;;;;;;;;;24.80;51.20;;;;;;488840;243;962;-68
2021/09/26 11:20:01;;;;;;;;;;;24.80;51.20;;;;;;488884;243;1056;-68
2021/09/26 11:22:03;;;;;;;;;;;24.90;51.10;;;;;;488740;243;2182;-69
2021/09/26 11:24:04;;;;;;;;;;;24.90;51.10;;;;;;488704;243;1212;-69
2021/09/26 11:26:06;;;;;;;;;;;24.90;51.00;;;;;;488741;243;1179;-68
2021/09/26 11:28:07;;;;;;;;;;;24.90;51.00;;;;;;488812;243;1062;-68
2021/09/26 11:30:08;;;;;;;;;;;24.90;51.10;;;;;;488824;243;1068;-68
2021/09/26 11:32:10;;;;;;;;;;;24.90;51.20;;;;;;488807;243;1065;-68
2021/09/26 11:34:11;;;;;;;;;;;24.90;51.20;;;;;;488808;243;1211;-68
2021/09/26 11:36:12;;;;;;;;;;;24.90;51.20;;;;;;488835;243;1195;-68
2021/09/26 11:38:13;;;;;;;;;;;24.80;51.10;;;;;;488813;243;963;-69
2021/09/26 11:40:15;;;;;;;;;;;24.80;51.20;;;;;;488839;243;1312;-69
2021/09/26 11:42:16;;;;;;;;;;;24.90;51.20;;;;;;488872;243;2119;-68
2021/09/26 11:44:17;;;;;;;;;;;24.80;51.00;;;;;;488753;243;1044;-68
2021/09/26 11:46:19;;;;;;;;;;;24.80;51.30;;;;;;488723;243;1119;-68
2021/09/26 11:48:20;;;;;;;;;;;24.80;51.20;;;;;;488800;243;1031;-68
2021/09/26 11:50:21;;;;;;;;;;;24.80;51.20;;;;;;488725;243;1216;-68
2021/09/26 11:52:23;;;;;;;;;;;24.80;51.30;;;;;;488800;243;1045;-68
2021/09/26 11:54:24;;;;;;;;;;;24.80;51.30;;;;;;488778;243;1052;-68
2021/09/26 11:56:26;;;;;;;;;;;24.70;51.40;;;;;;488808;243;1202;-68